Time;durP1;ratioP1;P1;durP2;ratioP2;P2;SDS_P1;SDS_P2;PMS_P1;PMS_P2;Temp;Humidity;BMP_temperature;BMP_pressure;BME280_temperature;BME280_humidity;BME280_pressure;Samples;Min_cycle;Max_cycle;Signal;HPM_P1;HPM_P2
2022/12/30 10:08:35;;;;;;;4.33;1.80;;;;;;;8.15;100.00;98789.72;5147086;27;20555;-88
2022/12/30 10:11:26;;;;;;;2.00;1.50;;;;;;;8.92;100.00;98776.63;5113068;27;39045;-88
2022/12/30 10:14:06;;;;;;;3.73;1.80;;;;;;;9.49;100.00;98744.28;5112894;27;40885;-91
2022/12/30 10:16:47;;;;;;;1.40;1.30;;;;;;;10.66;100.00;98744.88;5112244;27;43071;-88
2022/12/30 10:19:25;;;;;;;2.33;2.13;;;;;;;11.46;100.00;98741.31;5113215;27;41289;-87
2022/12/30 10:22:00;;;;;;;1.67;1.50;;;;;;;12.23;100.00;98761.63;5130447;27;38720;-89
2022/12/30 10:24:55;;;;;;;3.13;1.53;;;;;;;13.04;89.70;98753.06;5130333;27;40643;-89
2022/12/30 10:27:37;;;;;;;2.33;1.13;;;;;;;13.76;83.50;98765.31;5112082;27;43745;-88
2022/12/30 10:30:13;;;;;;;1.60;1.13;;;;;;;14.68;77.89;98774.94;5113100;27;40732;-88
2022/12/30 10:32:49;;;;;;;1.77;0.97;;;;;;;14.37;74.80;98755.19;5112159;27;38724;-91
2022/12/30 10:35:21;;;;;;;2.27;1.30;;;;;;;14.19;74.55;98719.38;5129680;27;41311;-87
2022/12/30 10:37:51;;;;;;;1.57;1.03;;;;;;;15.12;71.05;98757.97;5129300;27;43028;-88
2022/12/30 10:40:23;;;;;;;1.53;0.93;;;;;;;16.05;68.31;98758.97;5112782;27;42157;-87
2022/12/30 10:43:07;;;;;;;2.43;1.40;;;;;;;17.36;65.52;98770.47;5112677;27;38753;-87
2022/12/30 10:46:01;;;;;;;1.20;1.10;;;;;;;18.85;58.99;98793.84;5112406;27;42399;-88
2022/12/30 10:48:48;;;;;;;1.07;1.00;;;;;;;20.24;53.83;98789.63;5112206;27;43291;-90
2022/12/30 10:51:18;;;;;;;1.20;1.00;;;;;;;21.39;50.07;98791.81;5112114;27;41281;-89
2022/12/30 10:53:49;;;;;;;1.53;1.27;;;;;;;22.24;48.26;98795.91;5129419;27;39962;-88
2022/12/30 10:56:23;;;;;;;1.50;1.00;;;;;;;22.70;47.23;98805.06;5111619;27;41010;-88
2022/12/30 10:58:52;;;;;;;1.43;1.00;;;;;;;22.34;45.70;98807.34;5111980;27;41691;-88
2022/12/30 11:01:23;;;;;;;1.33;0.87;;;;;;;21.60;45.53;98811.06;5111640;27;41486;-87
2022/12/30 11:03:56;;;;;;;2.13;1.10;;;;;;;20.61;46.86;98801.97;5129145;27;39951;-87
2022/12/30 11:06:26;;;;;;;1.77;1.00;;;;;;;19.78;47.37;98781.91;5128194;27;41448;-87
2022/12/30 11:09:05;;;;;;;1.10;1.00;;;;;;;19.00;47.83;98739.53;5112303;27;41968;-87
2022/12/30 11:14:43;;;;;;;3.23;1.00;;;;;;;17.60;49.52;98755.66;5112134;27;40167;-86
2022/12/30 11:17:23;;;;;;;1.30;0.97;;;;;;;16.98;51.36;98732.00;5111578;27;40964;-87
2022/12/30 11:19:52;;;;;;;2.00;0.80;;;;;;;16.99;50.31;98727.50;5097470;28;41446;-89
2022/12/30 11:22:20;;;;;;;1.30;1.00;;;;;;;17.38;50.61;98737.22;5097867;28;41009;-87
2022/12/30 11:24:58;;;;;;;1.47;1.13;;;;;;;17.41;49.74;98755.69;5098426;28;38762;-87
2022/12/30 11:27:43;;;;;;;1.23;0.90;;;;;;;17.39;49.98;98720.19;5099025;28;41080;-87
2022/12/30 11:30:25;;;;;;;0.80;0.80;;;;;;;18.07;50.21;98742.34;5103554;28;44158;-86
2022/12/30 11:32:55;;;;;;;1.10;0.90;;;;;;;18.47;48.05;98738.53;5103520;28;41887;-87
2022/12/30 11:35:37;;;;;;;0.80;0.80;;;;;;;19.13;46.96;98751.72;5119973;28;39085;-87
2022/12/30 11:38:27;;;;;;;0.87;0.80;;;;;;;19.26;46.80;98722.66;5103788;28;40455;-87
2022/12/30 11:40:55;;;;;;;1.13;1.00;;;;;;;18.92;46.78;98750.16;5098814;28;41769;-88
2022/12/30 11:43:24;;;;;;;0.80;0.80;;;;;;;18.28;47.20;98740.31;5097544;28;41415;-87
2022/12/30 11:45:58;;;;;;;0.93;0.70;;;;;;;17.87;48.01;98746.06;5114265;28;38846;-87
2022/12/30 11:48:31;;;;;;;0.80;0.80;;;;;;;17.64;49.63;98723.28;5114524;28;41710;-86
2022/12/30 11:51:01;;;;;;;0.90;0.80;;;;;;;18.23;47.48;98747.94;5097222;28;42240;-86
2022/12/30 11:53:31;;;;;;;1.20;0.77;;;;;;;18.12;48.38;98696.34;5097598;28;42128;-87
2022/12/30 11:55:59;;;;;;;1.33;0.93;;;;;;;18.04;47.50;98710.50;5097329;28;40353;-85
2022/12/30 11:58:35;;;;;;;1.13;0.80;;;;;;;18.17;48.31;98710.19;5097561;28;42286;-87
2022/12/30 12:01:08;;;;;;;1.13;0.80;;;;;;;18.30;48.26;98714.19;5097287;28;41874;-86
2022/12/30 12:03:48;;;;;;;1.37;1.23;;;;;;;18.22;47.59;98687.28;5097700;28;41229;-86
2022/12/30 12:06:16;;;;;;;0.93;0.90;;;;;;;18.63;47.91;98702.06;5114193;28;39153;-87
2022/12/30 12:08:51;;;;;;;0.90;0.70;;;;;;;18.91;46.28;98715.44;5097433;28;40986;-87
2022/12/30 12:11:23;;;;;;;1.23;1.10;;;;;;;18.69;46.83;98703.28;5097057;28;43803;-87
2022/12/30 12:14:03;;;;;;;1.70;0.77;;;;;;;18.85;46.67;98695.41;5097760;28;41278;-87
2022/12/30 12:16:36;;;;;;;0.80;0.70;;;;;;;19.16;46.26;98708.47;5096808;28;40645;-88
2022/12/30 12:19:17;;;;;;;0.97;0.90;;;;;;;19.04;46.10;98685.56;5097027;28;40582;-87
2022/12/30 12:21:48;;;;;;;1.80;0.90;;;;;;;18.76;44.95;98672.19;5113846;28;42003;-88
2022/12/30 12:24:23;;;;;;;1.33;0.77;;;;;;;18.76;44.68;98690.13;5096837;28;41986;-92
2022/12/30 12:26:57;;;;;;;1.03;0.90;;;;;;;18.70;44.80;98696.91;5096569;28;39589;-88
2022/12/30 12:29:27;;;;;;;1.17;0.70;;;;;;;18.47;44.84;98664.28;5096533;28;42027;-87
2022/12/30 12:32:34;;;;;;;0.93;0.77;;;;;;;18.11;46.14;98658.00;5128641;27;42693;-88
2022/12/30 12:35:11;;;;;;;1.87;1.07;;;;;;;17.33;46.67;98645.78;5096604;28;41340;-87
2022/12/30 12:37:52;;;;;;;1.00;0.70;;;;;;;16.71;48.37;98643.56;5096549;28;38852;-91
2022/12/30 12:40:37;;;;;;;2.57;0.90;;;;;;;16.17;49.53;98642.19;5096701;28;40934;-87
2022/12/30 12:43:14;;;;;;;3.00;1.10;;;;;;;15.84;50.64;98643.31;5095941;28;41418;-87
2022/12/30 12:46:04;;;;;;;1.57;0.97;;;;;;;15.48;51.92;98638.44;5096454;28;42370;-87
2022/12/30 12:48:53;;;;;;;1.90;1.43;;;;;;;15.25;52.63;98640.41;5095667;28;39653;-87
2022/12/30 12:51:38;;;;;;;1.17;0.77;;;;;;;15.01;53.06;98627.34;5113332;28;40898;-87
2022/12/30 12:54:34;;;;;;;1.13;0.80;;;;;;;14.92;53.58;98652.13;5113508;28;41304;-88
2022/12/30 12:57:10;;;;;;;1.67;1.00;;;;;;;14.64;53.53;98627.75;5050453;28;41221;-87
2022/12/30 12:59:59;;;;;;;1.13;0.90;;;;;;;14.20;54.31;98582.56;5113241;28;40543;-86
2022/12/30 13:05:47;;;;;;;1.83;1.20;;;;;;;13.87;55.78;98591.47;5110560;28;20566;-89
2022/12/30 13:08:24;;;;;;;1.47;1.17;;;;;;;13.70;55.83;98586.66;5126656;27;38940;-87
2022/12/30 13:10:58;;;;;;;1.27;1.17;;;;;;;13.40;57.04;98563.31;5126302;27;42082;-88
2022/12/30 13:13:33;;;;;;;1.83;1.17;;;;;;;13.36;57.04;98575.13;5092083;28;41940;-87
2022/12/30 13:16:06;;;;;;;1.90;1.27;;;;;;;13.09;57.52;98541.75;5091681;28;41662;-86
2022/12/30 13:18:38;;;;;;;3.83;1.77;;;;;;;12.93;58.21;98525.28;5091765;28;39487;-87
2022/12/30 13:21:10;;;;;;;1.60;1.50;;;;;;;12.80;58.48;98509.44;5092383;28;41873;-88
2022/12/30 13:23:44;;;;;;;3.30;1.40;;;;;;;12.56;59.34;98490.91;5091393;28;42844;-88
2022/12/30 13:26:12;;;;;;;2.20;1.27;;;;;;;12.37;60.02;98474.66;5089389;28;40994;-85
2022/12/30 13:28:40;;;;;;;1.60;1.50;;;;;;;12.38;60.58;98481.69;5090760;28;38931;-87
2022/12/30 13:31:24;;;;;;;2.87;1.47;;;;;;;12.21;61.02;98458.22;5089354;28;40750;-87
2022/12/30 13:34:02;;;;;;;1.47;1.37;;;;;;;12.34;62.42;98488.19;5086836;28;41048;-86
2022/12/30 13:36:37;;;;;;;2.87;2.10;;;;;;;12.14;63.51;98457.84;5089306;28;42213;-87
2022/12/30 13:39:18;;;;;;;2.20;2.00;;;;;;;12.16;64.29;98465.69;5089751;28;38975;-85
2022/12/30 13:42:06;;;;;;;1.90;1.80;;;;;;;12.07;64.84;98466.38;5086725;28;40856;-86
2022/12/30 13:44:37;;;;;;;2.37;2.00;;;;;;;11.99;64.95;98463.47;5089312;28;43502;-85
2022/12/30 13:47:06;;;;;;;2.70;2.33;;;;;;;11.75;66.00;98429.81;5101791;28;42898;-87
2022/12/30 13:49:37;;;;;;;2.70;2.43;;;;;;;11.74;66.41;98444.03;5088678;28;38770;-87
2022/12/30 13:52:20;;;;;;;2.97;2.40;;;;;;;11.59;66.97;98437.19;5089589;28;40733;-86
2022/12/30 13:54:51;;;;;;;2.50;2.30;;;;;;;11.49;67.34;98444.13;5084749;28;42777;-86
2022/12/30 13:57:30;;;;;;;3.10;2.80;;;;;;;11.38;67.96;98446.69;5088841;28;42635;-87
2022/12/30 14:00:10;;;;;;;3.30;2.50;;;;;;;11.42;67.75;98454.31;5088024;28;39043;-87
2022/12/30 14:02:49;;;;;;;3.07;2.57;;;;;;;11.30;68.24;98438.44;5101474;28;41648;-86
2022/12/30 14:05:59;;;;;;;2.40;2.20;;;;;;;11.21;69.17;98436.47;5084269;28;41838;-86
2022/12/30 14:09:10;;;;;;;3.20;2.90;;;;;;;11.10;69.67;98422.19;5087235;28;42564;-87
2022/12/30 14:11:37;;;;;;;3.00;2.33;;;;;;;10.91;69.80;98411.19;5088268;28;39121;-87
2022/12/30 14:14:20;;;;;;;3.90;2.77;;;;;;;10.98;69.73;98428.34;5089055;28;40397;-85
2022/12/30 14:16:57;;;;;;;2.80;2.53;;;;;;;10.96;70.28;98429.41;5074794;28;41626;-86
2022/12/30 14:19:36;;;;;;;2.93;2.73;;;;;;;10.86;70.13;98423.91;5074849;28;42472;-87
2022/12/30 14:22:04;;;;;;;2.50;2.30;;;;;;;10.74;70.57;98424.78;5074552;28;39055;-85
2022/12/30 14:24:49;;;;;;;3.23;2.93;;;;;;;10.84;70.97;98440.88;5074277;28;40809;-87
2022/12/30 14:27:45;;;;;;;3.03;2.73;;;;;;;10.85;70.91;98443.41;5072001;28;41968;-86
2022/12/30 14:30:33;;;;;;;2.77;2.53;;;;;;;10.86;70.90;98450.41;5036735;28;41150;-87
2022/12/30 14:33:05;;;;;;;3.50;3.20;;;;;;;10.87;71.03;98461.84;5074351;28;40693;-86
2022/12/30 14:35:33;;;;;;;3.27;2.87;;;;;;;10.91;70.98;98453.56;5074712;28;41892;-86
2022/12/30 14:38:29;;;;;;;5.37;3.53;;;;;;;10.85;71.34;98429.31;5074988;28;41779;-86
2022/12/30 14:41:01;;;;;;;4.10;3.00;;;;;;;10.85;71.08;98432.81;5057763;28;42253;-87
2022/12/30 14:43:31;;;;;;;4.07;3.67;;;;;;;10.82;70.97;98442.78;5074884;28;40093;-86
2022/12/30 14:46:36;;;;;;;5.83;3.83;;;;;;;10.76;71.30;98422.84;5073777;28;40621;-88
2022/12/30 14:49:11;;;;;;;7.23;3.97;;;;;;;10.67;71.72;98423.50;5073006;28;41960;-87
2022/12/30 14:51:42;;;;;;;5.73;3.60;;;;;;;10.64;72.19;98415.75;5074944;28;42227;-86
2022/12/30 14:54:15;;;;;;;3.40;3.10;;;;;;;10.60;72.29;98406.34;5074145;28;39859;-86
2022/12/30 14:56:52;;;;;;;2.97;2.70;;;;;;;10.58;72.74;98403.81;5074532;28;40840;-85
2022/12/30 14:59:24;;;;;;;3.43;3.13;;;;;;;10.56;72.92;98388.97;5071697;28;41312;-86
2022/12/30 15:02:12;;;;;;;3.00;2.70;;;;;;;10.33;72.98;98357.03;5073812;28;41340;-86
2022/12/30 15:04:40;;;;;;;3.13;2.83;;;;;;;10.38;73.08;98375.25;5072995;28;39801;-87
2022/12/30 15:07:08;;;;;;;3.50;2.60;;;;;;;10.29;73.58;98357.31;5108238;28;41827;-88
2022/12/30 15:09:37;;;;;;;3.27;2.40;;;;;;;10.29;73.68;98362.63;5073336;28;43970;-87
2022/12/30 15:12:09;;;;;;;5.40;2.90;;;;;;;10.38;73.71;98376.09;5074423;28;41248;-87
2022/12/30 15:14:37;;;;;;;3.40;3.10;;;;;;;10.17;74.09;98344.91;5072692;28;39130;-87
2022/12/30 15:17:29;;;;;;;3.30;3.00;;;;;;;10.31;74.85;98369.50;5073817;28;42060;-87
2022/12/30 15:19:57;;;;;;;2.93;2.50;;;;;;;10.27;74.51;98357.44;5070818;28;43277;-87
2022/12/30 15:22:27;;;;;;;2.87;2.57;;;;;;;10.30;74.78;98357.22;5076333;28;42527;-87
2022/12/30 15:24:55;;;;;;;2.70;2.30;;;;;;;10.24;74.38;98352.38;5075878;28;40510;-87
2022/12/30 15:27:28;;;;;;;3.67;3.00;;;;;;;10.27;74.54;98332.78;5075183;28;42039;-88
2022/12/30 15:30:06;;;;;;;2.77;2.40;;;;;;;10.33;74.63;98349.09;5076184;28;44141;-87
2022/12/30 15:32:36;;;;;;;3.00;2.70;;;;;;;10.18;74.85;98322.81;5093009;28;42702;-88
2022/12/30 15:35:14;;;;;;;2.53;2.30;;;;;;;10.20;74.84;98329.72;5076204;28;40257;-88
2022/12/30 15:37:44;;;;;;;3.10;2.80;;;;;;;10.26;75.25;98336.41;5076072;28;40498;-87
2022/12/30 15:40:16;;;;;;;4.77;2.20;;;;;;;10.20;75.89;98337.66;5075595;28;41509;-87
2022/12/30 15:42:49;;;;;;;3.77;2.50;;;;;;;9.96;76.39;98311.06;5076041;28;42205;-86
2022/12/30 15:45:37;;;;;;;2.30;2.10;;;;;;;9.95;78.14;98327.03;5075590;28;39711;-90
2022/12/30 15:48:30;;;;;;;2.20;2.00;;;;;;;9.84;79.09;98316.34;5075983;28;40932;-89
2022/12/30 15:51:06;;;;;;;2.07;1.97;;;;;;;9.84;80.26;98337.50;5076114;28;44637;-88
2022/12/30 15:53:35;;;;;;;1.93;1.80;;;;;;;9.57;81.60;98314.59;5076256;28;42348;-91
2022/12/30 15:56:05;;;;;;;3.47;2.00;;;;;;;9.60;82.70;98324.97;5076070;28;39889;-89
2022/12/30 15:58:40;;;;;;;3.30;2.10;;;;;;;9.27;84.29;98284.97;5076021;28;40895;-91
2022/12/30 16:01:11;;;;;;;3.70;2.23;;;;;;;9.05;85.09;98258.22;5076122;28;42090;-91
2022/12/30 16:03:41;;;;;;;3.70;2.20;;;;;;;9.35;86.20;98309.06;5075073;28;41262;-89
2022/12/30 16:06:13;;;;;;;2.17;1.97;;;;;;;9.37;86.28;98312.44;5076173;28;38770;-88
2022/12/30 16:08:41;;;;;;;3.63;2.20;;;;;;;9.24;86.47;98296.56;5075920;28;40971;-89
2022/12/30 16:11:11;;;;;;;2.50;2.07;;;;;;;9.14;86.09;98278.78;5075571;28;42740;-87
2022/12/30 16:13:43;;;;;;;4.87;2.13;;;;;;;9.38;87.30;98300.94;5075913;28;42516;-89
2022/12/30 16:16:32;;;;;;;2.40;2.20;;;;;;;9.35;87.21;98293.22;5075778;28;40109;-87
2022/12/30 16:19:21;;;;;;;2.60;2.00;;;;;;;9.39;88.90;98289.41;5075213;28;42298;-87
2022/12/30 16:21:52;;;;;;;2.87;1.90;;;;;;;9.32;89.46;98293.41;5075773;28;43089;-88
2022/12/30 16:24:35;;;;;;;2.67;2.33;;;;;;;9.34;90.02;98307.38;5075722;28;42117;-87
2022/12/30 16:27:07;;;;;;;5.10;2.20;;;;;;;9.27;90.05;98284.97;5075487;28;40510;-88
2022/12/30 16:29:36;;;;;;;3.37;2.23;;;;;;;9.11;90.32;98257.84;5075350;28;40831;-87
2022/12/30 16:32:11;;;;;;;3.73;2.43;;;;;;;9.23;91.30;98272.88;5075232;28;41764;-86
2022/12/30 16:34:39;;;;;;;2.03;1.83;;;;;;;9.21;91.53;98280.06;5075429;28;41135;-86
2022/12/30 16:37:26;;;;;;;2.60;1.67;;;;;;;8.93;91.76;98233.47;5075796;28;39304;-86
2022/12/30 16:40:10;;;;;;;;;;;;;;;;;;;;;
2022/12/30 16:42:50;;;;;;;3.43;2.00;;;;;;;9.04;93.26;98245.97;5092361;28;41803;-89
2022/12/30 16:45:25;;;;;;;3.50;2.23;;;;;;;9.20;92.90;98246.66;5074722;28;41272;-89
2022/12/30 16:47:55;;;;;;;2.20;2.00;;;;;;;8.91;93.21;98199.25;5075169;28;40136;-89
2022/12/30 16:50:23;;;;;;;2.13;1.87;;;;;;;9.25;94.59;98255.16;5075062;28;40357;-89
2022/12/30 16:52:51;;;;;;;2.17;1.93;;;;;;;9.27;94.85;98261.19;5075205;28;42058;-91
2022/12/30 16:55:22;;;;;;;3.13;2.10;;;;;;;9.26;95.07;98262.13;5075099;28;42403;-88
2022/12/30 16:57:50;;;;;;;2.90;2.00;;;;;;;9.04;94.81;98203.72;5075650;28;39114;-88
2022/12/30 17:00:22;;;;;;;4.33;2.40;;;;;;;9.17;95.20;98236.28;5074613;28;40834;-89
2022/12/30 17:02:52;;;;;;;2.30;2.00;;;;;;;9.18;95.54;98227.41;5074869;28;41705;-89
2022/12/30 17:05:23;;;;;;;3.17;2.40;;;;;;;9.38;95.66;98263.94;5074204;28;41327;-84
2022/12/30 17:07:51;;;;;;;3.80;2.10;;;;;;;9.38;96.11;98260.44;5074842;28;40314;-85
2022/12/30 17:13:11;;;;;;;3.50;2.97;;;;;;;9.34;96.41;98243.94;5074394;28;45220;-90
2022/12/30 17:15:41;;;;;;;3.80;2.20;;;;;;;9.34;96.64;98243.94;5074670;28;42391;-90
2022/12/30 17:18:11;;;;;;;2.67;2.10;;;;;;;9.39;97.13;98252.44;5074789;28;39024;-87
2022/12/30 17:20:43;;;;;;;3.53;2.50;;;;;;;9.01;97.20;98183.66;5074644;28;40603;-88
2022/12/30 17:23:21;;;;;;;2.47;2.27;;;;;;;9.34;96.93;98239.50;5074719;28;41393;-87
